Bay City, Washington
Current Conditions -  °F | °C
As of 3:53 PM on Sunday 21 Dec 2014 (Local Time) from KHQM Reporting Station
Haze Haze  
Wind Chill: 53°   Ceiling: 12000
Heat Index: 53°   Visibility: 4mi
Dew Point: 50°   Wind: 10mph
Humidity: 89%   Direction: 250°WSW
Pressure: 30.07"   Gusts: NA
Location:  47.1445°N, 123.771°W
Report Text: KHQM 212353Z AUTO 25009KT 4SM BR FEW024 BKN120 12/10 A3007 RMK AO2 SLP184 60002 T01170100 10128 20117 53017
Loading
Personal Weather Stations






























Interactive Weather Map New forecast layout! Learn more

10-Day Weather Forecast

Advertisements
Track Severe Weather on mobile